createdAt,value
2018-08-04T00:03:39.410Z,51.10
2018-08-04T00:08:41.545Z,50.60
2018-08-04T00:13:43.702Z,50.70
2018-08-04T00:18:45.852Z,50.50
2018-08-04T00:23:47.989Z,50.80
2018-08-04T00:28:50.105Z,51.40
2018-08-04T00:33:52.257Z,51.20
2018-08-04T00:38:55.046Z,51.20
2018-08-04T00:43:57.217Z,51.50
2018-08-04T00:48:59.349Z,51.20
2018-08-04T00:54:01.497Z,51.60
2018-08-04T00:59:03.655Z,52.10
2018-08-04T01:04:05.849Z,52.70
2018-08-04T01:09:08.727Z,52.80
2018-08-04T01:14:10.902Z,53.40
2018-08-04T01:19:13.101Z,53.80
2018-08-04T01:24:15.269Z,54.20
2018-08-04T01:29:17.417Z,54.70
2018-08-04T01:34:19.594Z,54.90
2018-08-04T01:39:21.765Z,55.50
2018-08-04T01:44:23.932Z,56.40
2018-08-04T01:49:26.085Z,57.30
2018-08-04T01:54:28.254Z,57.60
2018-08-04T01:59:30.430Z,57.70
2018-08-04T02:04:32.571Z,58.20
2018-08-04T02:09:34.702Z,58.40
2018-08-04T02:14:36.849Z,58.80
2018-08-04T02:19:39.021Z,59.60
2018-08-04T02:24:41.174Z,61.70
2018-08-04T02:29:43.302Z,62.10
2018-08-04T02:34:45.438Z,62.30
2018-08-04T02:39:47.577Z,62.60
2018-08-04T02:44:49.713Z,63.10
2018-08-04T02:49:51.857Z,63.10
2018-08-04T02:54:54.286Z,62.70
2018-08-04T02:59:56.449Z,63.30
2018-08-04T03:04:58.599Z,63.50
2018-08-04T03:10:00.790Z,64.30
2018-08-04T03:15:02.981Z,64.80
2018-08-04T03:20:06.026Z,67.30
2018-08-04T03:25:08.181Z,67.40
2018-08-04T03:30:10.362Z,67.60
2018-08-04T03:35:12.532Z,68.80
2018-08-04T03:40:14.714Z,69.90
2018-08-04T03:45:16.889Z,71.60
2018-08-04T03:50:19.041Z,71.20
2018-08-04T03:55:21.189Z,70.70
2018-08-04T04:00:23.362Z,71.30
2018-08-04T04:05:25.490Z,72.90
2018-08-04T04:10:27.617Z,73.20
2018-08-04T04:15:29.758Z,74.30
2018-08-04T04:20:31.905Z,74.60
2018-08-04T04:25:34.029Z,78.20
2018-08-04T04:30:36.163Z,81.70
2018-08-04T04:35:38.302Z,82.80
2018-08-04T04:40:40.454Z,81.80
2018-08-04T04:45:42.585Z,84.60
2018-08-04T04:50:44.717Z,81.00
2018-08-04T04:55:46.857Z,76.80
2018-08-04T05:00:49.002Z,77.50
2018-08-04T05:05:51.161Z,74.30
2018-08-04T05:10:53.335Z,71.50
2018-08-04T05:15:55.484Z,70.60
2018-08-04T05:20:57.645Z,69.90
2018-08-04T05:25:59.831Z,68.60
2018-08-04T05:31:02.002Z,65.90
2018-08-04T05:36:04.328Z,64.60
2018-08-04T05:41:06.527Z,63.60
2018-08-04T05:46:08.574Z,62.70
2018-08-04T05:51:10.757Z,61.30
2018-08-04T05:56:12.911Z,60.00
2018-08-04T06:01:15.066Z,59.70
2018-08-04T06:06:17.209Z,59.30
2018-08-04T06:11:19.354Z,58.70
2018-08-04T06:16:21.485Z,56.10
2018-08-04T06:21:23.643Z,54.80
2018-08-04T06:26:25.778Z,53.90
2018-08-04T06:31:28.006Z,53.70
2018-08-04T06:36:30.161Z,52.50
2018-08-04T06:41:32.306Z,55.40
2018-08-04T06:46:34.420Z,53.30
2018-08-04T06:51:36.591Z,51.90
2018-08-04T06:56:38.777Z,50.50
2018-08-04T07:01:41.146Z,49.40
2018-08-04T07:06:43.318Z,48.40
2018-08-04T07:11:45.496Z,48.50
2018-08-04T07:16:47.657Z,49.00
2018-08-04T07:21:49.873Z,47.30
2018-08-04T07:26:52.055Z,45.50
2018-08-04T07:31:54.217Z,45.60
2018-08-04T07:36:56.373Z,45.20
2018-08-04T07:41:58.545Z,44.30
2018-08-04T07:47:00.734Z,46.10
2018-08-04T07:52:02.913Z,45.00
2018-08-04T07:57:05.141Z,44.50
2018-08-04T08:02:07.381Z,44.60
2018-08-04T08:07:09.617Z,42.80
2018-08-04T08:12:11.750Z,42.20
2018-08-04T08:17:13.901Z,42.00
2018-08-04T08:22:16.071Z,41.00
2018-08-04T08:27:18.254Z,39.80
2018-08-04T08:32:20.402Z,39.40
2018-08-04T08:37:22.571Z,39.40
2018-08-04T08:42:25.069Z,38.80
2018-08-04T08:47:27.233Z,38.60
2018-08-04T08:52:29.390Z,38.00
2018-08-04T08:57:31.562Z,37.50
2018-08-04T09:02:33.711Z,37.00
2018-08-04T09:07:35.878Z,37.00
2018-08-04T09:12:38.050Z,37.00
2018-08-04T09:17:40.206Z,37.20
2018-08-04T09:22:42.353Z,36.30
2018-08-04T09:27:44.524Z,35.10
2018-08-04T09:32:46.741Z,35.00
2018-08-04T09:37:48.941Z,35.10
2018-08-04T09:42:51.110Z,35.10
2018-08-04T09:53:06.303Z,34.40
2018-08-04T09:58:08.481Z,34.50
2018-08-04T10:03:10.639Z,35.20
2018-08-04T10:08:12.905Z,34.60
2018-08-04T10:13:15.077Z,33.40
2018-08-04T10:18:17.229Z,33.40
2018-08-04T10:23:19.397Z,33.00
2018-08-04T10:28:21.630Z,32.80
2018-08-04T10:33:23.825Z,32.60
2018-08-04T10:38:26.014Z,32.10
2018-08-04T10:43:28.197Z,32.60
2018-08-04T10:48:30.390Z,31.90
2018-08-04T10:53:32.566Z,31.10
2018-08-04T10:58:34.762Z,30.80
2018-08-04T11:03:37.126Z,31.10
2018-08-04T11:08:39.289Z,29.60
2018-08-04T11:13:41.485Z,29.10
2018-08-04T11:18:43.680Z,30.60
2018-08-04T11:23:45.909Z,28.30
2018-08-04T11:28:48.141Z,27.80
2018-08-04T11:33:50.354Z,28.80
2018-08-04T11:38:52.570Z,29.60
2018-08-04T11:43:54.741Z,27.50
2018-08-04T11:48:56.918Z,27.30
2018-08-04T11:53:59.181Z,26.00
2018-08-04T11:59:01.351Z,26.40
2018-08-04T12:04:03.550Z,26.50
2018-08-04T12:09:08.805Z,25.20
2018-08-04T12:14:11.110Z,27.20
2018-08-04T12:19:13.288Z,26.40
2018-08-04T12:24:15.500Z,27.50
2018-08-04T12:29:17.690Z,27.90
2018-08-04T12:34:19.854Z,28.80
2018-08-04T12:39:22.058Z,28.00
2018-08-04T12:44:24.290Z,27.20
2018-08-04T12:49:26.487Z,25.50
2018-08-04T12:54:28.736Z,23.30
2018-08-04T12:59:30.913Z,24.90
2018-08-04T13:04:33.107Z,25.30
2018-08-04T13:09:35.551Z,30.60
2018-08-04T13:14:37.761Z,33.20
2018-08-04T13:19:39.939Z,33.10
2018-08-04T13:24:42.113Z,34.00
2018-08-04T13:29:44.348Z,33.20
2018-08-04T13:34:46.492Z,33.10
2018-08-04T13:39:50.324Z,32.40
2018-08-04T13:44:52.541Z,32.30
2018-08-04T13:49:54.725Z,31.60
2018-08-04T13:54:56.921Z,30.30
2018-08-04T13:59:59.105Z,28.40
2018-08-04T14:05:01.361Z,27.50
2018-08-04T14:10:03.581Z,27.50
2018-08-04T14:15:05.794Z,27.40
2018-08-04T14:20:07.953Z,27.50
2018-08-04T14:25:10.129Z,26.70
2018-08-04T14:30:12.334Z,26.90
2018-08-04T14:35:14.573Z,25.80
2018-08-04T14:40:16.758Z,24.70
2018-08-04T14:45:18.913Z,25.40
2018-08-04T14:50:21.065Z,25.10
2018-08-04T14:55:23.217Z,24.90
2018-08-04T15:00:25.373Z,25.60
2018-08-04T15:05:27.593Z,26.40
2018-08-04T15:10:29.745Z,26.60
2018-08-04T15:15:31.941Z,26.50
2018-08-04T15:20:34.098Z,27.50
2018-08-04T15:25:36.259Z,27.70
2018-08-04T15:30:38.406Z,28.10
2018-08-04T15:35:40.551Z,28.10
2018-08-04T15:40:42.711Z,27.80
2018-08-04T15:45:44.849Z,27.80
2018-08-04T15:50:47.014Z,28.00
2018-08-04T15:55:49.169Z,27.50
2018-08-04T16:00:51.309Z,27.60
2018-08-04T16:05:53.481Z,27.50
2018-08-04T16:10:55.682Z,27.50
2018-08-04T16:15:57.921Z,27.40
2018-08-04T16:21:00.097Z,28.40
2018-08-04T16:26:02.302Z,27.90
2018-08-04T16:31:04.498Z,27.20
2018-08-04T16:36:06.713Z,29.30
2018-08-04T16:41:08.893Z,28.70
2018-08-04T16:46:11.074Z,28.60
2018-08-04T16:51:13.278Z,28.50
2018-08-04T16:56:15.446Z,28.60
2018-08-04T17:01:17.626Z,27.20
2018-08-04T17:06:19.793Z,27.30
2018-08-04T17:11:21.984Z,28.20
2018-08-04T17:16:24.175Z,29.40
2018-08-04T17:21:26.370Z,28.80
2018-08-04T17:26:28.566Z,30.50
2018-08-04T17:31:30.728Z,30.60
2018-08-04T17:36:32.931Z,30.30
2018-08-04T17:41:35.176Z,29.80
2018-08-04T17:46:37.386Z,30.00
2018-08-04T17:51:39.553Z,29.40
2018-08-04T17:56:41.723Z,29.10
2018-08-04T18:01:43.938Z,29.60
2018-08-04T18:06:46.154Z,30.10
2018-08-04T18:11:48.358Z,29.80
2018-08-04T18:16:50.585Z,29.60
2018-08-04T18:21:52.818Z,29.50
2018-08-04T18:26:55.009Z,29.70
2018-08-04T18:31:57.190Z,30.30
2018-08-04T18:36:59.397Z,29.90
2018-08-04T18:42:01.621Z,31.00
2018-08-04T18:47:03.823Z,30.80
2018-08-04T18:52:06.073Z,30.60
2018-08-04T18:57:08.274Z,30.20
2018-08-04T19:02:10.486Z,29.60
2018-08-04T19:07:12.698Z,29.80
2018-08-04T19:12:14.873Z,29.40
2018-08-04T19:17:17.133Z,29.70
2018-08-04T19:22:19.338Z,29.80
2018-08-04T19:27:21.506Z,30.00
2018-08-04T19:32:23.716Z,30.20
2018-08-04T19:37:25.887Z,30.20
2018-08-04T19:42:28.077Z,30.30
2018-08-04T19:47:30.243Z,30.20
2018-08-04T19:52:32.427Z,30.60
2018-08-04T19:57:34.625Z,30.60
2018-08-04T20:02:36.791Z,30.60
2018-08-04T20:07:38.998Z,30.80
2018-08-04T20:12:41.161Z,30.70
2018-08-04T20:17:43.310Z,31.20
2018-08-04T20:22:45.471Z,31.30
2018-08-04T20:27:47.670Z,31.40
2018-08-04T20:32:49.902Z,31.30
2018-08-04T20:37:52.066Z,30.90
2018-08-04T20:42:54.213Z,31.00
2018-08-04T20:47:56.405Z,31.10
2018-08-04T20:52:58.646Z,31.30
2018-08-04T20:58:00.795Z,31.60
2018-08-04T21:03:02.950Z,31.60
2018-08-04T21:08:05.253Z,31.10
2018-08-04T21:13:07.434Z,31.10
2018-08-04T21:18:09.623Z,31.40
2018-08-04T21:23:11.813Z,31.80
2018-08-04T21:28:13.988Z,32.20
2018-08-04T21:33:16.145Z,32.30
2018-08-04T21:38:18.314Z,32.80
2018-08-04T21:43:20.477Z,33.20
2018-08-04T21:48:22.622Z,33.80
2018-08-04T21:53:24.765Z,34.30
2018-08-04T21:58:26.927Z,34.60
2018-08-04T22:03:29.096Z,34.50
2018-08-04T22:08:42.797Z,35.30
2018-08-04T22:13:44.981Z,35.90
2018-08-04T22:18:47.121Z,35.70
2018-08-04T22:23:49.285Z,35.90
2018-08-04T22:28:51.477Z,36.20
2018-08-04T22:33:53.641Z,36.40
2018-08-04T22:38:55.801Z,36.50
2018-08-04T22:43:57.957Z,36.90
2018-08-04T22:49:00.104Z,37.00
2018-08-04T22:54:02.257Z,37.70
2018-08-04T22:59:04.439Z,37.60
2018-08-04T23:04:06.593Z,37.80
2018-08-04T23:09:08.785Z,38.20
2018-08-04T23:14:10.965Z,38.00
2018-08-04T23:19:13.117Z,38.20
2018-08-04T23:24:15.313Z,38.50
2018-08-04T23:29:17.510Z,38.60
2018-08-04T23:34:19.664Z,38.90
2018-08-04T23:39:21.850Z,39.20
2018-08-04T23:44:24.027Z,39.40
2018-08-04T23:49:26.213Z,39.60
2018-08-04T23:54:28.405Z,39.90
2018-08-04T23:59:30.602Z,40.20
